createdAt,value
2018-11-04T00:01:19.832Z,62.81
2018-11-04T00:03:44.916Z,62.99
2018-11-04T00:06:10.013Z,62.12
2018-11-04T00:08:35.105Z,62.58
2018-11-04T00:11:00.192Z,62.95
2018-11-04T00:13:25.487Z,63.32
2018-11-04T00:21:03.002Z,64.00
2018-11-04T00:23:28.095Z,64.51
2018-11-04T00:25:53.244Z,64.37
2018-11-04T00:28:18.386Z,64.13
2018-11-04T00:30:43.466Z,64.87
2018-11-04T00:33:08.560Z,64.70
2018-11-04T00:35:33.654Z,64.66
2018-11-04T00:37:58.795Z,65.16
2018-11-04T00:40:23.899Z,64.96
2018-11-04T00:42:49.001Z,64.99
2018-11-04T00:45:14.197Z,65.11
2018-11-04T00:47:42.107Z,65.02
2018-11-04T00:50:09.881Z,64.84
2018-11-04T00:52:35.119Z,64.90
2018-11-04T00:55:00.236Z,64.87
2018-11-04T00:57:25.319Z,64.94
2018-11-04T00:59:50.440Z,64.66
2018-11-04T01:02:15.568Z,64.59
2018-11-04T01:04:40.647Z,64.65
2018-11-04T01:07:06.059Z,64.95
2018-11-04T01:09:31.139Z,64.85
2018-11-04T01:11:56.307Z,65.20
2018-11-04T01:14:21.360Z,64.77
2018-11-04T01:16:46.431Z,65.01
2018-11-04T01:19:11.531Z,65.03
2018-11-04T01:24:15.948Z,64.83
2018-11-04T01:26:41.092Z,65.09
2018-11-04T01:29:06.581Z,65.06
2018-11-04T01:31:31.665Z,64.68
2018-11-04T01:33:56.768Z,64.81
2018-11-04T01:36:21.897Z,64.82
2018-11-04T01:38:48.772Z,64.98
2018-11-04T01:41:13.848Z,65.10
2018-11-04T01:43:38.979Z,64.87
2018-11-04T01:46:04.134Z,64.83
2018-11-04T01:48:29.252Z,65.04
2018-11-04T01:50:54.340Z,65.07
2018-11-04T01:53:19.468Z,64.90
2018-11-04T01:55:44.559Z,64.90
2018-11-04T01:58:09.608Z,65.07
2018-11-04T02:00:34.695Z,65.03
2018-11-04T02:02:59.809Z,65.07
2018-11-04T02:05:24.936Z,65.31
2018-11-04T02:07:50.019Z,65.29
2018-11-04T02:10:15.591Z,65.12
2018-11-04T02:12:40.726Z,65.23
2018-11-04T02:15:06.202Z,65.26
2018-11-04T02:17:31.281Z,65.41
2018-11-04T02:19:56.388Z,65.13
2018-11-04T02:22:22.428Z,65.39
2018-11-04T02:24:47.513Z,65.24
2018-11-04T02:27:12.688Z,65.36
2018-11-04T02:29:56.796Z,65.37
2018-11-04T02:32:22.237Z,65.36
2018-11-04T02:34:47.383Z,65.44
2018-11-04T02:37:12.459Z,65.31
2018-11-04T02:39:37.589Z,65.26
2018-11-04T02:42:03.052Z,65.43
2018-11-04T02:44:28.145Z,65.44
2018-11-04T02:46:53.360Z,65.55
2018-11-04T02:49:18.351Z,65.62
2018-11-04T02:51:43.567Z,66.15
2018-11-04T02:54:08.610Z,66.04
2018-11-04T02:56:33.699Z,66.00
2018-11-04T02:58:58.802Z,66.02
2018-11-04T03:03:59.975Z,66.13
2018-11-04T03:06:25.082Z,66.12
2018-11-04T03:08:50.154Z,66.33
2018-11-04T03:11:15.274Z,66.12
2018-11-04T03:13:40.372Z,66.07
2018-11-04T03:16:05.553Z,65.93
2018-11-04T03:18:30.620Z,65.89
2018-11-04T03:20:55.698Z,66.10
2018-11-04T03:23:20.808Z,66.14
2018-11-04T03:25:45.903Z,66.35
2018-11-04T03:28:11.666Z,66.31
2018-11-04T03:30:36.763Z,66.12
2018-11-04T03:33:01.828Z,66.37
2018-11-04T03:35:26.930Z,66.11
2018-11-04T03:37:52.022Z,66.26
2018-11-04T03:40:17.154Z,66.15
2018-11-04T03:42:42.633Z,66.21
2018-11-04T03:45:08.001Z,66.23
2018-11-04T03:47:33.083Z,66.23
2018-11-04T03:50:00.402Z,66.08
2018-11-04T03:52:25.528Z,66.45
2018-11-04T03:54:50.633Z,66.26
2018-11-04T03:57:15.721Z,66.64
2018-11-04T03:59:40.848Z,66.96
2018-11-04T04:02:06.204Z,66.67
2018-11-04T04:04:31.306Z,66.61
2018-11-04T04:06:56.382Z,66.89
2018-11-04T04:09:21.485Z,66.63
2018-11-04T04:11:46.613Z,66.58
2018-11-04T04:14:11.674Z,66.64
2018-11-04T04:16:36.759Z,66.83
2018-11-04T04:21:38.094Z,66.85
2018-11-04T04:24:03.146Z,66.76
2018-11-04T04:26:28.224Z,66.67
2018-11-04T04:31:30.024Z,66.95
2018-11-04T04:33:55.126Z,66.93
2018-11-04T04:36:20.223Z,66.85
2018-11-04T04:38:56.968Z,66.52
2018-11-04T04:41:22.059Z,66.84
2018-11-04T04:43:47.136Z,67.19
2018-11-04T04:46:13.068Z,66.74
2018-11-04T04:51:51.695Z,66.96
2018-11-04T05:06:12.711Z,66.90
2018-11-04T05:08:41.191Z,67.00
2018-11-04T05:11:06.237Z,66.98
2018-11-04T05:13:31.354Z,66.99
2018-11-04T05:15:56.441Z,66.92
2018-11-04T05:18:21.525Z,67.00
2018-11-04T05:20:46.629Z,66.88
2018-11-04T05:23:11.706Z,67.04
2018-11-04T05:28:15.667Z,66.89
2018-11-04T05:30:40.788Z,66.87
2018-11-04T05:33:06.118Z,66.85
2018-11-04T05:35:31.204Z,66.94
2018-11-04T05:37:56.258Z,66.86
2018-11-04T05:40:21.356Z,66.96
2018-11-04T05:42:46.433Z,66.99
2018-11-04T05:45:11.555Z,66.93
2018-11-04T05:47:36.663Z,66.80
2018-11-04T05:50:01.777Z,66.76
2018-11-04T05:52:26.863Z,66.91
2018-11-04T05:55:10.890Z,66.93
2018-11-04T05:57:54.973Z,66.64
2018-11-04T06:00:39.032Z,66.84
2018-11-04T06:03:04.114Z,66.55
2018-11-04T06:05:29.196Z,66.78
2018-11-04T06:07:54.290Z,67.15
2018-11-04T06:10:38.347Z,66.94
2018-11-04T06:13:03.416Z,66.98
2018-11-04T06:15:47.557Z,66.87
2018-11-04T06:18:12.574Z,66.77
2018-11-04T06:20:37.645Z,67.04
2018-11-04T06:23:02.750Z,67.18
2018-11-04T06:25:27.813Z,67.09
2018-11-04T06:28:11.866Z,67.24
2018-11-04T06:30:55.921Z,67.21
2018-11-04T06:33:21.045Z,67.36
2018-11-04T06:35:46.124Z,67.40
2018-11-04T06:38:11.205Z,67.26
2018-11-04T06:40:36.285Z,67.38
2018-11-04T06:43:01.371Z,67.46
2018-11-04T06:45:26.462Z,67.60
2018-11-04T06:47:51.536Z,67.37
2018-11-04T06:50:16.725Z,67.87
2018-11-04T06:52:42.327Z,68.19
2018-11-04T06:55:08.643Z,67.90
2018-11-04T06:57:33.716Z,68.13
2018-11-04T06:59:58.851Z,68.01
2018-11-04T07:02:23.929Z,67.85
2018-11-04T07:04:49.022Z,67.95
2018-11-04T07:07:14.124Z,68.03
2018-11-04T07:09:39.214Z,68.02
2018-11-04T07:12:04.283Z,68.19
2018-11-04T07:14:29.379Z,68.12
2018-11-04T07:16:54.524Z,68.05
2018-11-04T07:19:19.592Z,68.61
2018-11-04T07:21:44.726Z,68.53
2018-11-04T07:24:09.869Z,68.97
2018-11-04T07:26:54.042Z,68.86
2018-11-04T07:29:19.138Z,69.33
2018-11-04T07:31:44.206Z,69.06
2018-11-04T07:34:09.372Z,69.46
2018-11-04T07:36:34.540Z,69.86
2018-11-04T07:38:59.768Z,69.38
2018-11-04T07:41:24.893Z,69.58
2018-11-04T07:43:50.266Z,69.45
2018-11-04T07:46:15.473Z,69.46
2018-11-04T07:48:40.612Z,69.75
2018-11-04T07:51:05.765Z,69.59
2018-11-04T07:53:30.896Z,69.25
2018-11-04T07:55:55.956Z,69.74
2018-11-04T07:58:21.099Z,69.83
2018-11-04T08:00:46.205Z,69.98
2018-11-04T08:03:11.408Z,70.84
2018-11-04T08:05:36.493Z,70.30
2018-11-04T08:08:01.567Z,70.41
2018-11-04T08:10:26.668Z,70.48
2018-11-04T08:12:51.786Z,70.28
2018-11-04T08:15:17.036Z,70.30
2018-11-04T08:17:42.157Z,70.39
2018-11-04T08:20:07.862Z,70.09
2018-11-04T08:22:33.078Z,70.01
2018-11-04T08:25:05.736Z,69.77
2018-11-04T08:27:30.908Z,70.32
2018-11-04T08:29:55.980Z,69.98
2018-11-04T08:32:21.101Z,69.47
2018-11-04T08:34:46.238Z,69.71
2018-11-04T08:37:11.329Z,69.52
2018-11-04T08:39:36.548Z,70.03
2018-11-04T08:42:01.655Z,70.01
2018-11-04T08:44:26.782Z,69.92
2018-11-04T08:46:51.901Z,69.42
2018-11-04T08:49:17.020Z,69.62
2018-11-04T08:51:42.195Z,69.22
2018-11-04T08:54:26.457Z,69.12
2018-11-04T08:56:51.635Z,69.14
2018-11-04T08:59:16.728Z,69.39
2018-11-04T09:01:41.834Z,70.02
2018-11-04T09:06:43.678Z,69.18
2018-11-04T09:09:08.848Z,71.14
2018-11-04T09:11:33.935Z,70.49
2018-11-04T09:13:59.043Z,70.72
2018-11-04T09:16:24.123Z,71.57
2018-11-04T09:18:49.205Z,70.47
2018-11-04T09:21:14.385Z,70.42
2018-11-04T09:23:39.592Z,70.30
2018-11-04T09:26:04.626Z,70.11
2018-11-04T09:28:29.751Z,70.12
2018-11-04T09:30:54.865Z,69.87
2018-11-04T09:33:38.993Z,69.73
2018-11-04T09:36:04.226Z,69.94
2018-11-04T09:38:29.278Z,69.96
2018-11-04T09:40:54.423Z,69.88
2018-11-04T09:43:19.550Z,69.97
2018-11-04T09:45:44.654Z,69.82
2018-11-04T09:48:09.794Z,70.55
2018-11-04T09:50:53.979Z,70.40
2018-11-04T09:53:22.487Z,69.62
2018-11-04T09:55:48.285Z,70.24
2018-11-04T09:58:13.515Z,69.98
2018-11-04T10:03:26.918Z,70.01
2018-11-04T10:05:52.033Z,69.70
2018-11-04T10:08:17.210Z,69.83
2018-11-04T10:10:46.209Z,69.55
2018-11-04T10:13:11.825Z,70.01
2018-11-04T10:15:56.698Z,69.94
2018-11-04T10:18:21.840Z,69.86
2018-11-04T10:20:47.596Z,69.20
2018-11-04T10:28:27.914Z,69.28
2018-11-04T10:30:53.214Z,69.15
2018-11-04T10:33:18.449Z,69.36
2018-11-04T10:35:44.716Z,69.29
2018-11-04T10:38:10.819Z,69.18
2018-11-04T10:40:36.430Z,69.72
2018-11-04T10:43:01.669Z,69.40
2018-11-04T10:45:26.880Z,69.45
2018-11-04T10:47:53.914Z,69.04
2018-11-04T10:50:22.015Z,68.96
2018-11-04T10:52:47.191Z,69.16
2018-11-04T10:55:12.470Z,69.12
2018-11-04T10:57:37.630Z,68.96
2018-11-04T11:00:02.854Z,69.16
2018-11-04T11:02:27.972Z,68.80
2018-11-04T11:04:53.082Z,68.52
2018-11-04T11:07:18.269Z,68.47
2018-11-04T11:09:43.337Z,68.82
2018-11-04T11:12:08.545Z,68.50
2018-11-04T11:14:33.831Z,68.49
2018-11-04T11:16:59.016Z,68.42
2018-11-04T11:19:24.263Z,68.70
2018-11-04T11:21:49.357Z,68.78
2018-11-04T11:24:14.602Z,68.59
2018-11-04T11:26:39.784Z,68.36
2018-11-04T11:29:04.950Z,68.50
2018-11-04T11:31:30.096Z,68.56
2018-11-04T11:33:55.346Z,68.42
2018-11-04T11:36:20.600Z,68.42
2018-11-04T11:38:45.796Z,68.25
2018-11-04T11:41:11.132Z,68.67
2018-11-04T11:43:36.338Z,68.17
2018-11-04T11:48:59.893Z,68.26
2018-11-04T11:51:25.022Z,67.92
2018-11-04T11:53:50.270Z,68.21
2018-11-04T11:56:15.439Z,67.99
2018-11-04T11:58:40.522Z,67.96
2018-11-04T12:01:05.763Z,67.91
2018-11-04T12:03:30.861Z,67.85
2018-11-04T12:05:55.981Z,68.18
2018-11-04T12:08:21.137Z,68.26
2018-11-04T12:10:46.238Z,68.20
2018-11-04T12:13:11.434Z,67.88
2018-11-04T12:15:36.565Z,68.04
2018-11-04T12:18:01.714Z,67.85
2018-11-04T12:20:45.803Z,68.18
2018-11-04T12:23:10.982Z,67.95
2018-11-04T12:25:36.232Z,67.94
2018-11-04T12:28:01.378Z,67.78
2018-11-04T12:30:26.508Z,68.04
2018-11-04T12:32:51.767Z,68.25
2018-11-04T12:35:17.304Z,67.93
2018-11-04T12:37:42.930Z,67.79
2018-11-04T12:40:10.415Z,68.02
2018-11-04T12:42:35.569Z,67.98
2018-11-04T12:45:00.715Z,68.09
2018-11-04T12:47:25.949Z,68.26
2018-11-04T12:50:10.153Z,67.95
2018-11-04T12:52:35.260Z,67.80
2018-11-04T12:55:00.422Z,67.73
2018-11-04T12:57:25.628Z,67.99
2018-11-04T12:59:50.758Z,68.26
2018-11-04T13:02:15.903Z,67.85
2018-11-04T13:07:36.324Z,67.89
2018-11-04T13:10:01.486Z,67.80
2018-11-04T13:12:26.541Z,67.99
2018-11-04T13:14:51.731Z,67.88
2018-11-04T13:17:16.953Z,67.89
2018-11-04T13:19:42.151Z,68.06
2018-11-04T13:22:07.301Z,68.00
2018-11-04T13:24:32.537Z,67.90
2018-11-04T13:26:57.866Z,67.96
2018-11-04T13:29:22.862Z,68.42
2018-11-04T13:31:48.077Z,68.15
2018-11-04T13:34:17.146Z,68.43
2018-11-04T13:36:42.338Z,68.33
2018-11-04T13:39:09.101Z,68.40
2018-11-04T13:41:34.211Z,68.26
2018-11-04T13:43:59.392Z,68.55
2018-11-04T13:46:24.544Z,68.32
2018-11-04T13:48:49.653Z,68.38
2018-11-04T13:51:14.842Z,68.24
2018-11-04T13:53:39.998Z,68.23
2018-11-04T13:56:05.127Z,68.87
2018-11-04T13:58:30.309Z,68.90
2018-11-04T14:00:55.577Z,68.55
2018-11-04T14:03:20.719Z,68.73
2018-11-04T14:05:45.920Z,68.76
2018-11-04T14:08:11.283Z,68.52
2018-11-04T14:10:40.641Z,68.44
2018-11-04T14:13:23.297Z,68.86
2018-11-04T14:19:11.388Z,68.80
2018-11-04T14:21:44.205Z,68.82
2018-11-04T14:45:04.427Z,69.93
2018-11-04T14:47:29.986Z,69.94
2018-11-04T14:49:59.298Z,69.75
2018-11-04T14:52:24.607Z,70.28
2018-11-04T14:54:49.824Z,69.97
2018-11-04T14:57:14.998Z,70.84
2018-11-04T14:59:40.180Z,70.35
2018-11-04T15:02:05.406Z,70.57
2018-11-04T15:04:30.647Z,70.35
2018-11-04T15:06:55.840Z,70.15
2018-11-04T15:09:21.382Z,70.54
2018-11-04T15:11:46.962Z,70.33
2018-11-04T15:14:12.780Z,71.14
2018-11-04T15:16:38.008Z,70.59
2018-11-04T15:19:03.280Z,71.09
2018-11-04T15:21:28.422Z,70.75
2018-11-04T15:23:53.672Z,71.01
2018-11-04T15:26:21.399Z,71.04
2018-11-04T15:28:46.709Z,70.56
2018-11-04T15:31:11.953Z,70.55
2018-11-04T15:33:37.254Z,70.84
2018-11-04T15:39:15.644Z,71.02
2018-11-04T15:41:40.787Z,70.48
2018-11-04T15:44:05.912Z,70.89
2018-11-04T15:46:32.244Z,71.01
2018-11-04T15:48:57.548Z,71.06
2018-11-04T15:51:22.669Z,70.83
2018-11-04T15:53:47.884Z,70.80
2018-11-04T15:56:13.004Z,70.72
2018-11-04T15:58:38.133Z,70.82
2018-11-04T16:01:03.364Z,70.99
2018-11-04T16:03:28.572Z,70.80
2018-11-04T16:06:12.680Z,70.98
2018-11-04T16:08:37.834Z,70.80
2018-11-04T16:11:02.983Z,71.30
2018-11-04T16:13:28.173Z,70.95
2018-11-04T16:15:53.348Z,70.94
2018-11-04T16:18:18.672Z,72.37
2018-11-04T16:20:43.785Z,71.40
2018-11-04T16:23:08.925Z,71.56
2018-11-04T16:25:34.236Z,71.53
2018-11-04T16:27:59.349Z,71.83
2018-11-04T16:30:43.397Z,71.58
2018-11-04T16:33:08.620Z,72.06
2018-11-04T16:35:33.816Z,71.42
2018-11-04T16:37:59.117Z,71.34
2018-11-04T16:40:24.179Z,71.27
2018-11-04T16:42:49.331Z,71.44
2018-11-04T16:45:15.925Z,71.47
2018-11-04T16:47:41.095Z,72.19
2018-11-04T16:50:18.153Z,71.96
2018-11-04T16:52:44.238Z,72.02
2018-11-04T16:55:10.388Z,71.71
2018-11-04T16:57:35.518Z,71.92
2018-11-04T17:02:37.274Z,71.36
2018-11-04T17:05:02.927Z,71.77
2018-11-04T17:07:28.019Z,71.98
2018-11-04T17:09:53.219Z,71.80
2018-11-04T17:15:00.682Z,71.68
2018-11-04T17:20:05.588Z,71.42
2018-11-04T17:22:30.862Z,71.26
2018-11-04T17:27:51.580Z,71.25
2018-11-04T17:32:55.754Z,71.79
2018-11-04T17:35:20.960Z,71.49
2018-11-04T17:37:46.588Z,71.72
2018-11-04T17:40:12.653Z,71.79
2018-11-04T17:42:43.806Z,72.35
2018-11-04T17:45:10.767Z,71.76
2018-11-04T17:47:36.045Z,71.71
2018-11-04T17:50:01.317Z,71.67
2018-11-04T17:52:26.538Z,71.39
2018-11-04T17:54:51.703Z,71.80
2018-11-04T17:57:18.632Z,71.49
2018-11-04T17:59:42.569Z,72.01
2018-11-04T18:04:44.797Z,72.07
2018-11-04T18:07:10.774Z,72.30
2018-11-04T18:09:36.013Z,72.24
2018-11-04T18:12:02.047Z,72.03
2018-11-04T18:14:29.063Z,72.18
2018-11-04T18:16:57.618Z,72.44
2018-11-04T18:22:30.919Z,71.71
2018-11-04T18:24:56.053Z,71.89
2018-11-04T18:27:21.302Z,72.09
2018-11-04T18:29:46.461Z,72.16
2018-11-04T18:32:11.649Z,72.15
2018-11-04T18:34:36.795Z,72.09
2018-11-04T18:37:01.968Z,72.04
2018-11-04T18:39:27.117Z,72.15
2018-11-04T18:41:52.265Z,71.92
2018-11-04T18:44:17.529Z,72.03
2018-11-04T18:46:42.658Z,72.22
2018-11-04T18:49:07.881Z,72.33
2018-11-04T18:51:33.084Z,72.39
2018-11-04T18:56:56.127Z,71.82
2018-11-04T18:59:21.476Z,72.09
2018-11-04T19:01:46.491Z,71.89
2018-11-04T19:04:11.601Z,72.26
2018-11-04T19:06:36.761Z,72.31
2018-11-04T19:09:01.896Z,72.27
2018-11-04T19:11:27.087Z,72.34
2018-11-04T19:13:52.328Z,72.48
2018-11-04T19:16:17.501Z,72.15
2018-11-04T19:18:43.326Z,72.35
2018-11-04T19:21:08.399Z,72.44
2018-11-04T19:23:52.557Z,72.33
2018-11-04T19:26:17.704Z,72.29
2018-11-04T19:28:42.899Z,72.61
2018-11-04T19:31:08.173Z,72.16
2018-11-04T19:33:33.223Z,72.19
2018-11-04T19:36:17.346Z,72.38
2018-11-04T19:38:42.472Z,72.45
2018-11-04T19:41:26.594Z,72.00
2018-11-04T19:43:51.856Z,72.03
2018-11-04T19:46:17.021Z,72.20
2018-11-04T19:48:42.358Z,72.32
2018-11-04T19:51:07.465Z,72.33
2018-11-04T19:53:32.619Z,71.80
2018-11-04T19:55:57.712Z,71.94
2018-11-04T19:58:22.887Z,71.91
2018-11-04T20:00:48.028Z,72.10
2018-11-04T20:03:13.146Z,72.53
2018-11-04T20:05:38.277Z,72.55
2018-11-04T20:08:03.405Z,72.30
2018-11-04T20:10:28.623Z,72.11
2018-11-04T20:13:12.388Z,72.22
2018-11-04T20:15:56.490Z,71.95
2018-11-04T20:18:40.288Z,71.66
2018-11-04T20:21:05.467Z,71.22
2018-11-04T20:23:30.578Z,71.58
2018-11-04T20:26:14.400Z,71.80
2018-11-04T20:28:39.580Z,72.08
2018-11-04T20:31:05.926Z,72.09
2018-11-04T20:33:29.853Z,71.52
2018-11-04T20:36:13.978Z,71.56
2018-11-04T20:38:57.887Z,71.85
2018-11-04T20:41:41.677Z,71.80
2018-11-04T20:44:06.893Z,71.61
2018-11-04T20:46:32.104Z,71.75
2018-11-04T20:49:17.894Z,71.49
2018-11-04T20:51:43.110Z,71.50
2018-11-04T20:54:08.331Z,71.13
2018-11-04T20:56:52.195Z,71.46
2018-11-04T20:59:17.323Z,71.63
2018-11-04T21:01:42.473Z,71.33
2018-11-04T21:04:07.917Z,71.50
2018-11-04T21:06:33.062Z,71.54
2018-11-04T21:08:58.196Z,71.45
2018-11-04T21:11:23.393Z,71.34
2018-11-04T21:13:48.568Z,71.38
2018-11-04T21:16:13.873Z,71.41
2018-11-04T21:18:38.843Z,71.58
2018-11-04T21:21:03.982Z,71.68
2018-11-04T21:23:29.171Z,71.86
2018-11-04T21:25:54.327Z,71.92
2018-11-04T21:28:21.253Z,71.64
2018-11-04T21:30:46.358Z,71.63
2018-11-04T21:33:11.471Z,72.21
2018-11-04T21:35:36.607Z,72.08
2018-11-04T21:38:01.923Z,71.90
2018-11-04T21:40:26.874Z,71.87
2018-11-04T21:42:52.235Z,72.13
2018-11-04T21:45:17.189Z,72.47
2018-11-04T21:47:42.625Z,72.34
2018-11-04T21:50:27.022Z,71.74
2018-11-04T21:53:03.905Z,71.85
2018-11-04T21:55:29.230Z,71.63
2018-11-04T21:57:54.168Z,71.62
2018-11-04T22:00:19.320Z,72.07
2018-11-04T22:02:44.554Z,71.90
2018-11-04T22:05:10.306Z,71.76
2018-11-04T22:07:35.472Z,71.95
2018-11-04T22:10:00.623Z,72.01
2018-11-04T22:12:25.740Z,71.94
2018-11-04T22:14:50.875Z,71.90
2018-11-04T22:17:15.976Z,71.99
2018-11-04T22:19:41.185Z,72.18
2018-11-04T22:22:18.111Z,71.94
2018-11-04T22:24:43.294Z,71.90
2018-11-04T22:27:08.384Z,72.82
2018-11-04T22:29:33.444Z,72.11
2018-11-04T22:31:58.561Z,72.23
2018-11-04T22:34:23.637Z,71.94
2018-11-04T22:36:48.761Z,71.57
2018-11-04T22:39:13.874Z,71.82
2018-11-04T22:41:38.976Z,71.64
2018-11-04T22:44:04.068Z,71.63
2018-11-04T22:49:25.063Z,71.62
2018-11-04T22:51:51.050Z,71.35
2018-11-04T22:54:16.233Z,71.57
2018-11-04T22:56:41.430Z,71.71
2018-11-04T22:59:06.844Z,71.75
2018-11-04T23:01:32.110Z,71.93
2018-11-04T23:03:57.425Z,71.84
2018-11-04T23:06:22.425Z,72.12
2018-11-04T23:08:47.655Z,71.85
2018-11-04T23:11:12.805Z,72.08
2018-11-04T23:13:57.241Z,72.03
2018-11-04T23:16:22.656Z,72.08
2018-11-04T23:21:43.199Z,72.07
2018-11-04T23:24:08.552Z,71.79
2018-11-04T23:26:33.653Z,71.89
2018-11-04T23:28:58.786Z,72.10
2018-11-04T23:31:23.903Z,72.11
2018-11-04T23:33:49.049Z,71.96
2018-11-04T23:36:14.193Z,72.09
2018-11-04T23:38:39.293Z,72.19
2018-11-04T23:41:04.405Z,71.81
2018-11-04T23:43:29.555Z,71.87
2018-11-04T23:45:54.721Z,71.92
2018-11-04T23:48:19.815Z,71.79
2018-11-04T23:50:44.917Z,71.95
2018-11-04T23:53:10.077Z,72.07
2018-11-04T23:55:35.207Z,72.12
2018-11-04T23:58:00.334Z,71.99
